createdAt,value
2023-05-21T00:01:16.886Z,15.40
2023-05-21T00:03:46.088Z,16.33
2023-05-21T00:06:13.763Z,17.05
2023-05-21T00:08:41.306Z,16.25
2023-05-21T00:11:08.509Z,15.82
2023-05-21T00:13:35.521Z,17.92
2023-05-21T00:16:02.425Z,18.58
2023-05-21T00:18:32.214Z,17.63
2023-05-21T00:21:00.484Z,17.63
2023-05-21T00:23:27.758Z,14.55
2023-05-21T00:25:54.630Z,13.82
2023-05-21T00:28:21.522Z,15.23
2023-05-21T00:30:48.407Z,15.00
2023-05-21T00:33:15.692Z,16.52
2023-05-21T00:35:42.703Z,13.15
2023-05-21T00:38:09.599Z,14.52
2023-05-21T00:40:36.512Z,15.98
2023-05-21T00:43:03.423Z,14.27
2023-05-21T00:45:30.414Z,16.38
2023-05-21T00:47:57.755Z,13.07
2023-05-21T00:50:26.101Z,12.65
2023-05-21T00:52:53.314Z,18.92
2023-05-21T00:55:20.449Z,14.90
2023-05-21T00:57:47.560Z,15.00
2023-05-21T01:00:15.234Z,15.05
2023-05-21T01:02:44.192Z,15.38
2023-05-21T01:05:11.251Z,15.13
2023-05-21T01:07:41.404Z,14.70
2023-05-21T01:10:11.704Z,17.35
2023-05-21T01:12:41.663Z,15.02
2023-05-21T01:15:09.353Z,13.52
2023-05-21T01:17:36.392Z,15.00
2023-05-21T01:20:10.241Z,14.02
2023-05-21T01:22:53.895Z,13.73
2023-05-21T01:25:21.302Z,12.73
2023-05-21T01:27:49.050Z,15.77
2023-05-21T01:30:18.231Z,15.43
2023-05-21T01:32:51.040Z,16.23
2023-05-21T01:35:29.810Z,17.17
2023-05-21T01:38:13.608Z,18.33
2023-05-21T01:40:40.694Z,20.05
2023-05-21T01:43:09.412Z,16.60
2023-05-21T01:45:40.892Z,14.55
2023-05-21T01:48:09.281Z,19.35
2023-05-21T01:50:38.485Z,17.13
2023-05-21T01:53:06.073Z,14.20
2023-05-21T01:55:33.482Z,17.33
2023-05-21T01:58:02.430Z,16.63
2023-05-21T02:00:30.868Z,18.73
2023-05-21T02:02:58.754Z,17.92
2023-05-21T02:05:26.648Z,17.55
2023-05-21T02:07:56.983Z,16.13
2023-05-21T02:10:23.980Z,20.13
2023-05-21T02:12:50.935Z,18.00
2023-05-21T02:15:20.534Z,17.38
2023-05-21T02:17:47.408Z,16.50
2023-05-21T02:20:14.472Z,16.92
2023-05-21T02:22:43.422Z,16.35
2023-05-21T02:25:11.467Z,17.90
2023-05-21T02:27:39.513Z,17.85
2023-05-21T02:30:08.936Z,19.75
2023-05-21T02:32:36.555Z,18.75
2023-05-21T02:35:05.251Z,18.58
2023-05-21T02:37:35.452Z,16.85
2023-05-21T02:40:05.844Z,19.45
2023-05-21T02:42:32.848Z,17.17
2023-05-21T02:44:59.743Z,17.15
2023-05-21T02:47:26.753Z,17.30
2023-05-21T02:49:54.183Z,20.98
2023-05-21T02:52:24.530Z,16.98
2023-05-21T02:54:52.130Z,17.05
2023-05-21T02:57:19.304Z,21.55
2023-05-21T02:59:46.267Z,19.67
2023-05-21T03:02:13.213Z,17.55
2023-05-21T03:04:46.230Z,19.45
2023-05-21T03:07:20.143Z,15.65
2023-05-21T03:09:47.361Z,20.83
2023-05-21T03:12:14.440Z,17.13
2023-05-21T03:14:46.321Z,17.63
2023-05-21T03:17:17.062Z,15.98
2023-05-21T03:19:44.738Z,16.27
2023-05-21T03:22:12.019Z,13.23
2023-05-21T03:24:39.383Z,12.98
2023-05-21T03:27:06.957Z,14.07
2023-05-21T03:29:34.173Z,14.13
2023-05-21T03:32:02.074Z,16.13
2023-05-21T03:34:29.246Z,16.90
2023-05-21T03:36:56.074Z,17.75
2023-05-21T03:39:22.912Z,17.00
2023-05-21T03:41:49.820Z,17.85
2023-05-21T03:44:16.707Z,15.82
2023-05-21T03:46:45.440Z,15.27
2023-05-21T03:49:12.382Z,20.35
2023-05-21T03:51:39.607Z,18.73
2023-05-21T03:54:06.553Z,22.02
2023-05-21T03:56:33.502Z,17.60
2023-05-21T03:59:01.315Z,19.05
2023-05-21T04:01:28.489Z,17.27
2023-05-21T04:03:55.811Z,16.15
2023-05-21T04:06:22.920Z,19.42
2023-05-21T04:08:50.216Z,19.38
2023-05-21T04:11:17.185Z,15.25
2023-05-21T04:13:44.152Z,20.85
2023-05-21T04:16:14.581Z,22.10
2023-05-21T04:18:44.161Z,16.88
2023-05-21T04:21:12.707Z,21.42
2023-05-21T04:23:40.177Z,19.15
2023-05-21T04:26:07.830Z,17.52
2023-05-21T04:28:35.416Z,19.77
2023-05-21T04:31:02.769Z,20.50
2023-05-21T04:33:30.388Z,18.95
2023-05-21T04:35:57.819Z,22.25
2023-05-21T04:38:25.895Z,21.23
2023-05-21T04:40:53.207Z,17.92
2023-05-21T04:43:28.217Z,19.20
2023-05-21T04:45:55.418Z,21.70
2023-05-21T04:48:26.909Z,18.38
2023-05-21T04:50:54.106Z,15.35
2023-05-21T04:53:21.008Z,20.60
2023-05-21T04:55:48.074Z,16.67
2023-05-21T04:58:17.874Z,19.10
2023-05-21T05:00:50.935Z,15.95
2023-05-21T05:03:18.239Z,15.73
2023-05-21T05:05:45.717Z,16.67
2023-05-21T05:08:14.754Z,18.05
2023-05-21T05:10:42.902Z,15.52
2023-05-21T05:13:09.957Z,18.10
2023-05-21T05:15:37.166Z,16.15
2023-05-21T05:18:04.323Z,18.48
2023-05-21T05:20:31.183Z,17.40
2023-05-21T05:22:58.064Z,15.13
2023-05-21T05:25:24.980Z,17.73
2023-05-21T05:27:51.853Z,16.65
2023-05-21T05:30:20.118Z,15.63
2023-05-21T05:32:47.043Z,19.33
2023-05-21T05:35:13.908Z,17.77
2023-05-21T05:37:40.739Z,21.45
2023-05-21T05:40:08.122Z,17.10
2023-05-21T05:42:35.028Z,15.65
2023-05-21T05:45:01.897Z,17.30
2023-05-21T05:47:29.646Z,16.45
2023-05-21T05:49:56.669Z,18.23
2023-05-21T05:52:23.528Z,15.70
2023-05-21T05:54:50.353Z,18.35
2023-05-21T05:57:17.179Z,17.00
2023-05-21T05:59:44.011Z,16.88
2023-05-21T06:02:10.920Z,17.75
2023-05-21T06:04:37.773Z,18.65
2023-05-21T06:07:04.867Z,16.80
2023-05-21T06:09:31.758Z,17.38
2023-05-21T06:11:58.668Z,16.33
2023-05-21T06:14:25.718Z,16.75
2023-05-21T06:16:52.544Z,15.00
2023-05-21T06:19:20.060Z,17.70
2023-05-21T06:21:47.129Z,16.95
2023-05-21T06:24:13.975Z,15.98
2023-05-21T06:26:40.813Z,15.23
2023-05-21T06:29:07.807Z,15.70
2023-05-21T06:31:34.706Z,15.30
2023-05-21T06:34:01.849Z,15.88
2023-05-21T06:36:30.116Z,16.10
2023-05-21T06:38:57.417Z,16.75
2023-05-21T06:41:24.418Z,18.60
2023-05-21T06:43:51.592Z,19.02
2023-05-21T06:46:18.818Z,15.48
2023-05-21T06:48:48.533Z,16.02
2023-05-21T06:51:15.514Z,16.20
2023-05-21T06:53:42.335Z,15.80
2023-05-21T06:56:09.195Z,16.83
2023-05-21T06:58:36.092Z,17.67
2023-05-21T07:01:03.076Z,16.38
2023-05-21T07:03:30.220Z,15.82
2023-05-21T07:05:59.961Z,17.02
2023-05-21T07:08:27.257Z,14.35
2023-05-21T07:10:54.161Z,14.30
2023-05-21T07:13:20.982Z,15.70
2023-05-21T07:15:47.965Z,16.25
2023-05-21T07:18:15.283Z,15.13
2023-05-21T07:20:42.135Z,17.05
2023-05-21T07:23:08.948Z,14.43
2023-05-21T07:25:36.198Z,12.10
2023-05-21T07:28:05.196Z,11.93
2023-05-21T07:30:33.358Z,12.68
2023-05-21T07:33:00.194Z,11.32
2023-05-21T07:35:27.186Z,13.60
2023-05-21T07:37:54.034Z,11.60
2023-05-21T07:40:20.956Z,12.70
2023-05-21T07:42:48.056Z,12.68
2023-05-21T07:45:14.979Z,12.65
2023-05-21T07:47:42.493Z,14.57
2023-05-21T07:50:10.027Z,14.32
2023-05-21T07:52:36.893Z,17.23
2023-05-21T07:55:03.881Z,14.13
2023-05-21T07:57:30.732Z,11.85
2023-05-21T07:59:57.672Z,16.73
2023-05-21T08:02:24.621Z,13.07
2023-05-21T08:04:52.609Z,11.73
2023-05-21T08:07:21.444Z,11.90
2023-05-21T08:09:48.386Z,13.10
2023-05-21T08:12:16.051Z,12.05
2023-05-21T08:14:43.167Z,11.88
2023-05-21T08:17:11.486Z,11.60
2023-05-21T08:19:38.578Z,12.75
2023-05-21T08:22:08.319Z,9.10
2023-05-21T08:24:35.245Z,13.60
2023-05-21T08:27:02.137Z,13.25
2023-05-21T08:29:29.109Z,11.77
2023-05-21T08:31:56.430Z,12.50
2023-05-21T08:34:23.404Z,9.52
2023-05-21T08:36:50.452Z,11.25
2023-05-21T08:39:17.488Z,10.52
2023-05-21T08:41:49.696Z,10.52
2023-05-21T08:44:21.411Z,10.48
2023-05-21T08:46:51.151Z,10.35
2023-05-21T08:49:22.973Z,10.60
2023-05-21T08:51:51.428Z,11.27
2023-05-21T08:54:18.530Z,9.60
2023-05-21T08:56:47.165Z,11.98
2023-05-21T08:59:15.142Z,10.68
2023-05-21T09:01:42.416Z,10.60
2023-05-21T09:04:20.101Z,12.23
2023-05-21T09:06:48.498Z,10.35
2023-05-21T09:09:33.139Z,10.40
2023-05-21T09:12:00.108Z,9.63
2023-05-21T09:14:27.840Z,9.23
2023-05-21T09:16:54.767Z,14.77
2023-05-21T09:19:22.396Z,11.02
2023-05-21T09:21:51.916Z,9.23
2023-05-21T09:24:22.785Z,8.77
2023-05-21T09:26:49.874Z,10.75
2023-05-21T09:29:16.777Z,9.30
2023-05-21T09:31:46.941Z,9.18
2023-05-21T09:34:14.237Z,8.18
2023-05-21T09:36:41.170Z,10.30
2023-05-21T09:39:08.595Z,8.85
2023-05-21T09:41:36.786Z,8.23
2023-05-21T09:44:04.070Z,9.15
2023-05-21T09:46:42.969Z,7.35
2023-05-21T09:49:31.243Z,10.32
2023-05-21T09:51:59.015Z,9.13
2023-05-21T09:54:32.043Z,9.52
2023-05-21T09:57:02.102Z,11.10
2023-05-21T09:59:41.194Z,7.55
2023-05-21T10:02:23.355Z,7.60
2023-05-21T10:04:52.125Z,9.60
2023-05-21T10:07:27.072Z,9.02
2023-05-21T10:09:56.525Z,9.75
2023-05-21T10:12:27.614Z,7.15
2023-05-21T10:15:03.419Z,8.77
2023-05-21T10:17:31.486Z,10.50
2023-05-21T10:19:59.993Z,8.50
2023-05-21T10:22:28.153Z,8.63
2023-05-21T10:24:55.428Z,10.27
2023-05-21T10:27:23.257Z,11.15
2023-05-21T10:29:50.779Z,8.77
2023-05-21T10:32:18.290Z,7.53
2023-05-21T10:34:46.741Z,9.93
2023-05-21T10:37:13.923Z,7.07
2023-05-21T10:39:42.333Z,9.00
2023-05-21T10:42:33.340Z,9.38
2023-05-21T10:45:06.578Z,8.00
2023-05-21T10:50:48.576Z,10.65
2023-05-21T10:56:24.904Z,9.70
2023-05-21T10:59:18.295Z,7.75
2023-05-21T11:01:45.649Z,8.73
2023-05-21T11:04:15.774Z,8.38
2023-05-21T11:06:48.447Z,8.60
2023-05-21T11:09:16.083Z,10.10
2023-05-21T11:11:51.252Z,8.70
2023-05-21T11:14:32.617Z,9.55
2023-05-21T11:17:00.813Z,10.60
2023-05-21T11:19:42.209Z,8.38
2023-05-21T11:22:29.477Z,8.77
2023-05-21T11:25:01.144Z,7.50
2023-05-21T11:27:33.854Z,9.98
2023-05-21T11:30:10.356Z,9.52
2023-05-21T11:32:39.090Z,10.10
2023-05-21T11:35:06.868Z,8.73
2023-05-21T11:37:34.988Z,8.57
2023-05-21T11:40:26.150Z,7.35
2023-05-21T11:42:57.265Z,7.72
2023-05-21T11:45:31.389Z,6.88
2023-05-21T11:47:58.593Z,8.60
2023-05-21T11:50:25.904Z,8.10
2023-05-21T11:52:53.023Z,10.63
2023-05-21T11:55:25.840Z,7.82
2023-05-21T11:57:54.266Z,7.50
2023-05-21T12:00:21.651Z,8.63
2023-05-21T12:02:52.553Z,7.40
2023-05-21T12:05:19.731Z,9.52
2023-05-21T12:07:50.614Z,8.65
2023-05-21T12:10:21.422Z,7.03
2023-05-21T12:12:55.816Z,9.32
2023-05-21T12:15:24.791Z,6.88
2023-05-21T12:17:53.210Z,7.65
2023-05-21T12:20:20.913Z,10.48
2023-05-21T12:22:49.562Z,8.05
2023-05-21T12:25:20.119Z,6.72
2023-05-21T12:27:48.581Z,6.97
2023-05-21T12:30:15.791Z,10.70
2023-05-21T12:32:46.114Z,7.38
2023-05-21T12:35:24.289Z,8.65
2023-05-21T12:37:52.612Z,7.68
2023-05-21T12:40:20.206Z,7.97
2023-05-21T12:42:47.183Z,10.00
2023-05-21T12:45:14.647Z,6.53
2023-05-21T12:47:42.576Z,9.27
2023-05-21T12:50:13.977Z,6.93
2023-05-21T12:52:43.014Z,7.43
2023-05-21T12:55:13.012Z,10.15
2023-05-21T12:57:39.899Z,8.23
2023-05-21T13:00:07.936Z,7.43
2023-05-21T13:02:39.834Z,7.05
2023-05-21T13:05:15.287Z,8.32
2023-05-21T13:07:44.048Z,7.57
2023-05-21T13:10:12.262Z,7.47
2023-05-21T13:12:40.322Z,8.88
2023-05-21T13:15:08.493Z,7.70
2023-05-21T13:17:35.931Z,6.75
2023-05-21T13:20:08.908Z,6.65
2023-05-21T13:22:43.765Z,7.43
2023-05-21T13:25:12.018Z,10.63
2023-05-21T13:27:39.701Z,6.65
2023-05-21T13:30:07.956Z,7.70
2023-05-21T13:32:35.607Z,6.88
2023-05-21T13:35:02.628Z,7.28
2023-05-21T13:37:30.747Z,5.72
2023-05-21T13:39:58.112Z,6.95
2023-05-21T13:42:26.024Z,8.65
2023-05-21T13:44:52.898Z,7.00
2023-05-21T13:47:19.868Z,7.60
2023-05-21T13:49:46.922Z,7.40
2023-05-21T13:52:13.892Z,5.82
2023-05-21T13:54:42.017Z,9.80
2023-05-21T13:57:09.202Z,6.53
2023-05-21T13:59:36.110Z,8.13
2023-05-21T14:02:03.073Z,8.27
2023-05-21T14:04:30.250Z,8.90
2023-05-21T14:06:57.214Z,7.38
2023-05-21T14:09:27.112Z,6.57
2023-05-21T14:11:55.145Z,6.32
2023-05-21T14:14:22.693Z,6.63
2023-05-21T14:16:50.472Z,6.32
2023-05-21T14:19:17.737Z,6.28
2023-05-21T14:21:44.873Z,6.10
2023-05-21T14:24:11.849Z,5.97
2023-05-21T14:26:41.468Z,7.85
2023-05-21T14:29:08.869Z,6.55
2023-05-21T14:31:37.096Z,7.22
2023-05-21T14:34:05.200Z,7.57
2023-05-21T14:36:32.638Z,6.28
2023-05-21T14:38:59.717Z,7.00
2023-05-21T14:41:27.759Z,5.55
2023-05-21T14:43:54.729Z,6.72
2023-05-21T14:46:22.064Z,5.78
2023-05-21T14:48:48.968Z,9.50
2023-05-21T14:51:16.026Z,6.57
2023-05-21T14:53:42.899Z,7.05
2023-05-21T14:56:09.883Z,6.20
2023-05-21T14:58:36.734Z,8.27
2023-05-21T15:01:04.361Z,7.25
2023-05-21T15:03:31.571Z,8.05
2023-05-21T15:05:58.671Z,7.18
2023-05-21T15:08:25.837Z,7.15
2023-05-21T15:10:52.903Z,8.13
2023-05-21T15:13:21.278Z,7.82
2023-05-21T15:15:49.796Z,6.80
2023-05-21T15:18:19.648Z,8.98
2023-05-21T15:20:46.490Z,8.15
2023-05-21T15:23:17.242Z,7.47
2023-05-21T15:25:45.690Z,7.18
2023-05-21T15:28:12.868Z,5.60
2023-05-21T15:30:40.508Z,9.73
2023-05-21T15:33:07.567Z,6.78
2023-05-21T15:35:36.410Z,7.80
2023-05-21T15:38:03.784Z,7.70
2023-05-21T15:40:32.176Z,6.30
2023-05-21T15:42:59.376Z,6.88
2023-05-21T15:45:26.405Z,8.02
2023-05-21T15:47:53.338Z,5.85
2023-05-21T15:50:20.414Z,6.97
2023-05-21T15:52:47.283Z,8.15
2023-05-21T15:55:14.488Z,7.05
2023-05-21T15:57:41.485Z,6.88
2023-05-21T16:00:09.922Z,7.35
2023-05-21T16:02:37.151Z,8.20
2023-05-21T16:05:04.301Z,6.60
2023-05-21T16:07:31.517Z,6.05
2023-05-21T16:09:58.496Z,7.30
2023-05-21T16:12:25.772Z,7.18
2023-05-21T16:14:52.862Z,6.20
2023-05-21T16:17:19.970Z,6.18
2023-05-21T16:19:47.580Z,7.32
2023-05-21T16:22:15.075Z,7.90
2023-05-21T16:24:41.980Z,7.80
2023-05-21T16:27:08.835Z,5.82
2023-05-21T16:29:36.102Z,7.85
2023-05-21T16:32:03.880Z,6.32
2023-05-21T16:34:31.053Z,7.00
2023-05-21T16:36:58.697Z,9.98
2023-05-21T16:39:26.298Z,7.75
2023-05-21T16:41:55.154Z,6.82
2023-05-21T16:44:22.087Z,9.25
2023-05-21T16:46:48.954Z,6.68
2023-05-21T16:49:15.799Z,6.65
2023-05-21T16:51:42.678Z,9.68
2023-05-21T16:54:09.610Z,8.25
2023-05-21T16:56:36.604Z,7.53
2023-05-21T16:59:03.490Z,6.63
2023-05-21T17:01:30.448Z,8.80
2023-05-21T17:03:57.450Z,8.35
2023-05-21T17:06:24.570Z,6.15
2023-05-21T17:08:51.510Z,7.10
2023-05-21T17:11:18.381Z,6.60
2023-05-21T17:13:48.096Z,7.63
2023-05-21T17:16:15.325Z,8.98
2023-05-21T17:18:42.289Z,7.20
2023-05-21T17:21:09.859Z,7.95
2023-05-21T17:23:36.752Z,8.43
2023-05-21T17:26:03.675Z,6.40
2023-05-21T17:28:30.608Z,7.78
2023-05-21T17:30:57.987Z,8.48
2023-05-21T17:33:25.151Z,12.63
2023-05-21T17:35:52.036Z,7.82
2023-05-21T17:38:18.891Z,7.15
2023-05-21T17:40:45.841Z,8.80
2023-05-21T17:43:12.734Z,10.70
2023-05-21T17:45:40.036Z,8.50
2023-05-21T17:48:07.135Z,10.75
2023-05-21T17:50:34.292Z,7.75
2023-05-21T17:53:01.250Z,8.63
2023-05-21T17:55:28.152Z,8.40
2023-05-21T17:57:55.135Z,7.72
2023-05-21T18:00:22.052Z,8.75
2023-05-21T18:02:49.049Z,9.73
2023-05-21T18:05:16.142Z,9.48
2023-05-21T18:07:43.048Z,10.90
2023-05-21T18:10:10.186Z,10.68
2023-05-21T18:12:37.033Z,9.88
2023-05-21T18:15:04.117Z,8.52
2023-05-21T18:17:32.437Z,9.63
2023-05-21T18:19:59.314Z,12.93
2023-05-21T18:22:26.174Z,9.65
2023-05-21T18:24:53.052Z,13.52
2023-05-21T18:27:19.960Z,10.20
2023-05-21T18:29:48.956Z,11.13
2023-05-21T18:32:16.700Z,10.50
2023-05-21T18:34:43.952Z,8.10
2023-05-21T18:37:11.471Z,7.82
2023-05-21T18:39:38.370Z,12.82
2023-05-21T18:44:39.030Z,11.38
2023-05-21T18:47:07.604Z,10.05
2023-05-21T18:49:35.931Z,10.05
2023-05-21T18:52:04.039Z,9.05
2023-05-21T18:54:31.814Z,10.25
2023-05-21T18:57:00.422Z,8.43
2023-05-21T18:59:28.710Z,10.43
2023-05-21T19:01:55.755Z,9.63
2023-05-21T19:04:22.830Z,11.40
2023-05-21T19:06:49.735Z,8.20
2023-05-21T19:09:16.862Z,10.15
2023-05-21T19:11:43.749Z,10.15
2023-05-21T19:14:10.680Z,9.10
2023-05-21T19:16:37.578Z,8.60
2023-05-21T19:19:04.510Z,9.35
2023-05-21T19:21:31.720Z,9.00
2023-05-21T19:23:58.945Z,8.18
2023-05-21T19:26:25.774Z,8.35
2023-05-21T19:28:55.590Z,9.50
2023-05-21T19:31:23.260Z,9.20
2023-05-21T19:33:50.641Z,12.00
2023-05-21T19:36:18.625Z,10.02
2023-05-21T19:38:48.092Z,8.68
2023-05-21T19:41:16.376Z,10.68
2023-05-21T19:43:43.335Z,9.30
2023-05-21T19:46:10.479Z,9.40
2023-05-21T19:48:37.403Z,10.80
2023-05-21T19:51:04.441Z,13.13
2023-05-21T19:53:31.321Z,12.63
2023-05-21T19:55:58.242Z,10.57
2023-05-21T19:58:26.925Z,11.18
2023-05-21T20:00:59.231Z,12.45
2023-05-21T20:03:27.123Z,10.83
2023-05-21T20:05:54.529Z,11.68
2023-05-21T20:08:21.669Z,11.27
2023-05-21T20:10:51.372Z,10.38
2023-05-21T20:13:19.246Z,10.70
2023-05-21T20:15:47.814Z,9.35
2023-05-21T20:18:15.469Z,11.77
2023-05-21T20:20:43.358Z,13.27
2023-05-21T20:23:10.461Z,12.30
2023-05-21T20:25:37.352Z,11.13
2023-05-21T20:28:05.299Z,11.75
2023-05-21T20:30:34.149Z,14.63
2023-05-21T20:33:02.284Z,12.63
2023-05-21T20:35:30.455Z,12.50
2023-05-21T20:37:57.608Z,10.70
2023-05-21T20:40:24.797Z,10.70
2023-05-21T20:42:53.507Z,12.77
2023-05-21T20:45:21.967Z,11.20
2023-05-21T20:47:49.908Z,11.75
2023-05-21T20:50:25.750Z,13.30
2023-05-21T20:52:52.657Z,12.32
2023-05-21T20:55:20.775Z,14.10
2023-05-21T20:57:47.684Z,11.27
2023-05-21T21:00:16.149Z,9.70
2023-05-21T21:02:43.802Z,12.23
2023-05-21T21:05:11.387Z,12.13
2023-05-21T21:07:38.304Z,12.40
2023-05-21T21:10:05.907Z,12.40
2023-05-21T21:12:32.818Z,14.07
2023-05-21T21:14:59.694Z,13.15
2023-05-21T21:17:26.637Z,14.05
2023-05-21T21:19:53.536Z,15.25
2023-05-21T21:22:20.944Z,12.07
2023-05-21T21:24:48.043Z,10.73
2023-05-21T21:27:14.995Z,12.82
2023-05-21T21:29:41.960Z,15.57
2023-05-21T21:32:08.846Z,12.80
2023-05-21T21:34:35.905Z,12.18
2023-05-21T21:37:02.859Z,12.57
2023-05-21T21:39:29.701Z,11.90
2023-05-21T21:41:56.629Z,12.00
2023-05-21T21:44:23.631Z,13.85
2023-05-21T21:46:50.498Z,15.43
2023-05-21T21:49:17.612Z,12.68
2023-05-21T21:51:44.849Z,12.18
2023-05-21T21:54:12.018Z,12.13
2023-05-21T21:56:38.874Z,12.52
2023-05-21T21:59:05.876Z,14.70
2023-05-21T22:01:33.138Z,12.15
2023-05-21T22:04:00.059Z,11.55
2023-05-21T22:06:27.711Z,11.20
2023-05-21T22:08:55.001Z,11.88
2023-05-21T22:11:22.709Z,14.20
2023-05-21T22:13:49.667Z,13.00
2023-05-21T22:16:16.576Z,11.50
2023-05-21T22:18:43.703Z,12.98
2023-05-21T22:21:14.105Z,13.43
2023-05-21T22:23:41.332Z,12.90
2023-05-21T22:26:09.230Z,12.32
2023-05-21T22:28:36.138Z,11.68
2023-05-21T22:31:03.382Z,14.13
2023-05-21T22:33:30.679Z,14.45
2023-05-21T22:35:58.110Z,11.98
2023-05-21T22:38:25.824Z,12.68
2023-05-21T22:40:52.784Z,14.05
2023-05-21T22:43:19.837Z,12.18
2023-05-21T22:45:46.971Z,13.35
2023-05-21T22:48:14.308Z,12.70
2023-05-21T22:50:41.391Z,12.77
2023-05-21T22:53:08.578Z,15.15
2023-05-21T22:55:35.483Z,13.10
2023-05-21T22:58:02.378Z,14.10
2023-05-21T23:00:29.624Z,14.27
2023-05-21T23:02:56.692Z,15.48
2023-05-21T23:05:23.933Z,13.20
2023-05-21T23:07:51.081Z,14.40
2023-05-21T23:10:18.030Z,12.15
2023-05-21T23:12:44.891Z,15.13
2023-05-21T23:15:11.980Z,12.10
2023-05-21T23:17:38.920Z,12.85
2023-05-21T23:20:07.348Z,12.00
2023-05-21T23:22:34.893Z,14.20
2023-05-21T23:25:02.224Z,15.85
2023-05-21T23:27:29.506Z,15.25
2023-05-21T23:29:56.510Z,13.52
2023-05-21T23:32:23.869Z,14.13
2023-05-21T23:34:50.946Z,12.88
2023-05-21T23:37:18.618Z,12.65
2023-05-21T23:39:49.303Z,13.75
2023-05-21T23:42:17.413Z,13.88
2023-05-21T23:44:44.544Z,14.10
2023-05-21T23:47:11.405Z,14.63
2023-05-21T23:49:38.910Z,14.75
2023-05-21T23:52:06.265Z,15.77
2023-05-21T23:54:33.130Z,14.00
2023-05-21T23:56:59.994Z,13.35
2023-05-21T23:59:26.903Z,14.30
